Time;durP1;ratioP1;P1;durP2;ratioP2;P2;SDS_P1;SDS_P2;PMS_P1;PMS_P2;Temp;Humidity;BMP_temperature;BMP_pressure;BME280_temperature;BME280_humidity;BME280_pressure;Samples;Min_cycle;Max_cycle;Signal;HPM_P1;HPM_P2
2021/04/27 00:01:33;;;;;;;;;;;;;;;21.71;23.10;99515.94;4358185;32;19967;-55
2021/04/27 00:03:59;;;;;;;;;;;;;;;21.70;23.12;99513.31;4359707;32;19956;-55
2021/04/27 00:06:24;;;;;;;;;;;;;;;21.69;23.11;99512.41;4373623;32;20042;-55
2021/04/27 00:08:50;;;;;;;;;;;;;;;21.69;23.10;99508.91;4372704;32;19943;-55
2021/04/27 00:11:16;;;;;;;;;;;;;;;21.60;23.21;99508.03;4358854;32;19955;-55
2021/04/27 00:13:42;;;;;;;;;;;;;;;21.66;23.16;99507.16;4358955;32;19970;-55
2021/04/27 00:16:08;;;;;;;;;;;;;;;21.62;23.18;99506.25;4371688;32;19951;-55
2021/04/27 00:18:34;;;;;;;;;;;;;;;21.54;23.28;99508.06;4373091;32;20618;-53
2021/04/27 00:21:00;;;;;;;;;;;;;;;21.59;23.17;99495.69;4361945;32;19970;-53
2021/04/27 00:23:26;;;;;;;;;;;;;;;21.58;23.19;99504.50;4358394;32;20384;-53
2021/04/27 00:25:52;;;;;;;;;;;;;;;21.53;23.30;99500.13;4369958;32;19955;-55
2021/04/27 00:28:18;;;;;;;;;;;;;;;21.55;23.22;99493.94;4373461;32;19989;-55
2021/04/27 00:30:43;;;;;;;;;;;;;;;21.56;23.21;99486.88;4363591;32;19955;-55
2021/04/27 00:33:09;;;;;;;;;;;;;;;21.57;23.21;99486.88;4358293;32;20007;-55
2021/04/27 00:35:35;;;;;;;;;;;;;;;21.58;23.20;99490.37;4366214;32;19966;-53
2021/04/27 00:38:01;;;;;;;;;;;;;;;21.56;23.16;99490.41;4372966;32;19955;-55
2021/04/27 00:40:27;;;;;;;;;;;;;;;21.47;23.32;99485.16;4366152;32;20392;-54
2021/04/27 00:42:53;;;;;;;;;;;;;;;21.54;23.24;99483.34;4358581;32;20007;-55
2021/04/27 00:45:19;;;;;;;;;;;;;;;21.50;23.25;99482.47;4363411;32;19998;-56
2021/04/27 00:47:45;;;;;;;;;;;;;;;21.47;23.27;99479.88;4373986;32;19947;-55
2021/04/27 00:50:11;;;;;;;;;;;;;;;21.40;23.38;99483.44;4368120;32;20304;-55
2021/04/27 00:52:37;;;;;;;;;;;;;;;21.47;23.26;99479.88;4356834;32;19975;-55
2021/04/27 00:55:03;;;;;;;;;;;;;;;21.51;23.19;99472.78;4360229;32;19950;-52
2021/04/27 00:57:28;;;;;;;;;;;;;;;21.48;23.19;99465.72;4373294;32;19936;-55
2021/04/27 00:59:57;;;;;;;;;;;;;;;21.41;23.35;99458.69;4372220;32;19973;-55
2021/04/27 01:02:23;;;;;;;;;;;;;;;21.46;23.28;99462.22;4357996;32;20070;-54
2021/04/27 01:04:49;;;;;;;;;;;;;;;21.51;23.21;99460.41;4357867;32;20150;-54
2021/04/27 01:07:15;;;;;;;;;;;;;;;21.47;23.23;99461.31;4372944;32;20337;-56
2021/04/27 01:09:40;;;;;;;;;;;;;;;21.46;23.23;99462.22;4372885;32;19974;-55
2021/04/27 01:12:06;;;;;;;;;;;;;;;21.46;23.27;99454.25;4358450;32;20509;-56
2021/04/27 01:14:32;;;;;;;;;;;;;;;21.31;23.40;99452.59;4358175;32;19951;-55
2021/04/27 01:16:58;;;;;;;;;;;;;;;21.31;23.38;99453.47;4370567;32;20343;-55
2021/04/27 01:19:24;;;;;;;;;;;;;;;21.39;23.24;99452.53;4372018;32;20636;-54
2021/04/27 01:21:50;;;;;;;;;;;;;;;21.27;23.48;99450.84;4370386;32;19989;-56
2021/04/27 01:24:16;;;;;;;;;;;;;;;21.21;23.53;99449.12;4372812;32;20301;-55
2021/04/27 01:26:42;;;;;;;;;;;;;;;21.23;23.51;99455.28;4362844;32;19990;-55
2021/04/27 01:29:08;;;;;;;;;;;;;;;21.28;23.39;99458.78;4357291;32;19955;-53
2021/04/27 01:31:34;;;;;;;;;;;;;;;21.32;23.35;99455.25;4358140;32;19986;-56
2021/04/27 01:34:00;;;;;;;;;;;;;;;21.28;23.43;99458.78;4357870;32;20390;-54
2021/04/27 01:36:26;;;;;;;;;;;;;;;21.31;23.34;99449.94;4364370;32;19955;-55
2021/04/27 01:38:51;;;;;;;;;;;;;;;21.28;23.38;99450.84;4372971;32;19955;-55
2021/04/27 01:41:17;;;;;;;;;;;;;;;21.17;23.52;99450.00;4367309;32;19952;-54
2021/04/27 01:43:43;;;;;;;;;;;;;;;21.27;23.38;99448.22;4357927;32;19955;-55
2021/04/27 01:46:09;;;;;;;;;;;;;;;21.27;23.38;99445.56;4360588;32;19987;-54
2021/04/27 01:48:35;;;;;;;;;;;;;;;21.19;23.46;99449.12;4371989;32;19955;-55
2021/04/27 01:51:01;;;;;;;;;;;;;;;21.14;23.52;99436.81;4370227;32;19971;-55
2021/04/27 01:53:27;;;;;;;;;;;;;;;21.11;23.58;99439.47;4370849;32;20397;-55
2021/04/27 01:55:56;;;;;;;;;;;;;;;21.17;23.50;99439.41;4371714;32;20261;-55
2021/04/27 01:58:22;;;;;;;;;;;;;;;21.20;23.46;99447.38;4357153;32;19990;-55
2021/04/27 02:00:48;;;;;;;;;;;;;;;21.06;23.59;99443.03;4356962;32;20015;-55
2021/04/27 02:03:14;;;;;;;;;;;;;;;21.07;23.65;99443.91;4356467;32;19964;-53
2021/04/27 02:05:39;;;;;;;;;;;;;;;21.09;23.54;99441.25;4356187;32;20017;-53
2021/04/27 02:08:05;;;;;;;;;;;;;;;21.16;23.46;99441.22;4370155;32;19947;-56
2021/04/27 02:10:31;;;;;;;;;;;;;;;21.10;23.52;99443.00;4372115;32;19951;-55
2021/04/27 02:12:57;;;;;;;;;;;;;;;21.13;23.54;99443.00;4359608;32;20300;-56
2021/04/27 02:15:23;;;;;;;;;;;;;;;21.08;23.58;99439.50;4357454;32;19956;-55
2021/04/27 02:17:49;;;;;;;;;;;;;;;21.07;23.59;99438.59;4368567;32;19959;-56
2021/04/27 02:20:15;;;;;;;;;;;;;;;21.05;23.59;99430.69;4370529;32;19951;-56
2021/04/27 02:22:41;;;;;;;;;;;;;;;20.98;23.58;99434.25;4363166;32;19952;-56
2021/04/27 02:25:06;;;;;;;;;;;;;;;20.88;23.80;99428.13;4368050;32;19958;-54
2021/04/27 02:27:35;;;;;;;;;;;;;;;20.97;23.66;99424.56;4363851;32;19959;-55
2021/04/27 02:30:01;;;;;;;;;;;;;;;20.91;23.71;99425.47;4356842;32;19955;-55
2021/04/27 02:32:27;;;;;;;;;;;;;;;21.05;23.59;99419.22;4356997;32;19959;-56
2021/04/27 02:34:53;;;;;;;;;;;;;;;21.01;23.58;99426.28;4356682;32;19951;-55
2021/04/27 02:37:19;;;;;;;;;;;;;;;20.99;23.62;99421.87;4362437;32;20311;-55
2021/04/27 02:39:44;;;;;;;;;;;;;;;20.99;23.65;99419.22;4371523;32;20299;-55
2021/04/27 02:42:10;;;;;;;;;;;;;;;21.02;23.53;99417.44;4367408;32;19982;-53
2021/04/27 02:44:36;;;;;;;;;;;;;;;20.99;23.58;99414.81;4356773;32;20339;-55
2021/04/27 02:47:02;;;;;;;;;;;;;;;21.01;23.53;99418.34;4360080;32;19965;-53
2021/04/27 02:49:28;;;;;;;;;;;;;;;20.98;23.59;99413.06;4370775;32;20413;-55
2021/04/27 02:51:54;;;;;;;;;;;;;;;20.97;23.60;99411.31;4370277;32;19988;-54
2021/04/27 02:54:20;;;;;;;;;;;;;;;20.92;23.65;99408.69;4356364;32;20005;-56
2021/04/27 02:56:46;;;;;;;;;;;;;;;20.91;23.66;99403.41;4367957;32;20261;-56
2021/04/27 02:59:12;;;;;;;;;;;;;;;20.89;23.68;99402.53;4355878;32;19966;-54
2021/04/27 03:01:38;;;;;;;;;;;;;;;20.82;23.74;99399.03;4356597;32;20731;-50
2021/04/27 03:04:04;;;;;;;;;;;;;;;20.93;23.57;99404.28;4356030;32;20336;-55
2021/04/27 03:06:29;;;;;;;;;;;;;;;20.92;23.55;99397.22;4356726;32;19959;-54
2021/04/27 03:08:55;;;;;;;;;;;;;;;20.95;23.55;99391.91;4368873;32;20318;-55
2021/04/27 03:11:21;;;;;;;;;;;;;;;20.98;23.52;99391.91;4370263;32;19973;-53
2021/04/27 03:13:47;;;;;;;;;;;;;;;20.97;23.60;99391.91;4359753;32;20020;-54
2021/04/27 03:16:13;;;;;;;;;;;;;;;20.97;23.53;99395.44;4355569;32;19960;-55
2021/04/27 03:18:39;;;;;;;;;;;;;;;20.93;23.59;99393.69;4365464;32;20172;-53
2021/04/27 03:21:05;;;;;;;;;;;;;;;20.94;23.54;99395.47;4371198;32;20336;-56
2021/04/27 03:23:30;;;;;;;;;;;;;;;20.96;23.51;99388.38;4362601;32;19971;-55
2021/04/27 03:25:56;;;;;;;;;;;;;;;20.90;23.58;99394.59;4363738;32;19966;-54
2021/04/27 03:28:22;;;;;;;;;;;;;;;20.97;23.48;99390.13;4362868;32;20320;-56
2021/04/27 03:30:48;;;;;;;;;;;;;;;20.93;23.56;99388.41;4353543;32;19955;-52
2021/04/27 03:33:14;;;;;;;;;;;;;;;20.95;23.54;99391.91;4361851;32;19959;-55
2021/04/27 03:35:44;;;;;;;;;;;;;;;20.96;23.51;99388.38;4370087;32;19958;-56
2021/04/27 03:38:10;;;;;;;;;;;;;;;20.97;23.48;99390.13;4365935;32;20790;-55
2021/04/27 03:40:36;;;;;;;;;;;;;;;20.93;23.51;99385.75;4355870;32;20015;-54
2021/04/27 03:43:02;;;;;;;;;;;;;;;20.87;23.59;99388.44;4359760;32;19957;-55
2021/04/27 03:45:35;;;;;;;;;;;;;;;20.89;23.50;99387.53;4371673;32;19993;-54
2021/04/27 03:48:01;;;;;;;;;;;;;;;20.90;23.59;99384.00;4368893;32;19955;-55
2021/04/27 03:50:27;;;;;;;;;;;;;;;20.81;23.65;99388.44;4354728;32;19993;-55
2021/04/27 03:52:53;;;;;;;;;;;;;;;20.81;23.62;99377.84;4358363;32;19948;-54
2021/04/27 03:55:19;;;;;;;;;;;;;;;20.90;23.50;99383.13;4374706;32;19962;-56
2021/04/27 03:57:45;;;;;;;;;;;;;;;20.89;23.49;99378.72;4370393;32;19955;-55
2021/04/27 04:00:10;;;;;;;;;;;;;;;20.76;23.73;99375.22;4355470;32;19989;-56
2021/04/27 04:02:36;;;;;;;;;;;;;;;20.80;23.60;99382.25;4356388;32;19952;-54
2021/04/27 04:05:02;;;;;;;;;;;;;;;20.89;23.54;99381.34;4369378;32;20284;-55
2021/04/27 04:07:28;;;;;;;;;;;;;;;20.86;23.50;99376.09;4369809;32;20502;-55
2021/04/27 04:09:54;;;;;;;;;;;;;;;20.91;23.43;99380.47;4357773;32;19966;-55
2021/04/27 04:12:20;;;;;;;;;;;;;;;20.93;23.41;99383.13;4355774;32;19979;-50
2021/04/27 04:14:46;;;;;;;;;;;;;;;20.90;23.47;99385.75;4366741;32;19951;-56
2021/04/27 04:17:12;;;;;;;;;;;;;;;20.89;23.45;99378.72;4371115;32;19997;-54
2021/04/27 04:19:37;;;;;;;;;;;;;;;20.77;23.63;99382.28;4359716;32;19978;-56
2021/04/27 04:22:03;;;;;;;;;;;;;;;20.86;23.52;99386.69;4355440;32;20039;-55
2021/04/27 04:24:29;;;;;;;;;;;;;;;20.82;23.51;99380.50;4364210;32;20489;-56
2021/04/27 04:26:55;;;;;;;;;;;;;;;20.72;23.67;99379.66;4371225;32;19951;-54
2021/04/27 04:29:24;;;;;;;;;;;;;;;20.68;23.68;99396.44;4367315;32;19955;-53
2021/04/27 04:31:50;;;;;;;;;;;;;;;20.71;23.71;99385.84;4373674;32;20021;-55
2021/04/27 04:34:16;;;;;;;;;;;;;;;20.83;23.48;99381.41;4367321;32;20003;-55
2021/04/27 04:36:43;;;;;;;;;;;;;;;20.89;23.43;99387.53;4358800;32;20007;-56
2021/04/27 04:39:08;;;;;;;;;;;;;;;20.91;23.43;99387.50;4358112;32;20367;-53
2021/04/27 04:41:34;;;;;;;;;;;;;;;20.90;23.45;99393.69;4358945;32;19955;-55
2021/04/27 04:44:00;;;;;;;;;;;;;;;20.84;23.52;99394.59;4362005;32;20331;-56
2021/04/27 04:46:26;;;;;;;;;;;;;;;20.73;23.61;99397.28;4373396;32;19955;-55
2021/04/27 04:48:52;;;;;;;;;;;;;;;20.75;23.61;99395.50;4369190;32;20048;-55
2021/04/27 04:51:18;;;;;;;;;;;;;;;20.75;23.60;99395.50;4373556;32;19971;-54
2021/04/27 04:53:44;;;;;;;;;;;;;;;20.79;23.58;99394.59;4365694;32;20292;-55
2021/04/27 04:56:10;;;;;;;;;;;;;;;20.74;23.62;99398.16;4367477;32;20069;-53
2021/04/27 04:58:36;;;;;;;;;;;;;;;20.78;23.54;99395.47;4373496;32;19951;-54
2021/04/27 05:01:02;;;;;;;;;;;;;;;20.79;23.55;99388.44;4367935;32;19943;-55
2021/04/27 05:03:28;;;;;;;;;;;;;;;20.88;23.45;99398.13;4366535;32;19995;-55
2021/04/27 05:05:54;;;;;;;;;;;;;;;20.84;23.52;99399.03;4365580;32;19958;-53
2021/04/27 05:08:25;;;;;;;;;;;;;;;20.83;23.52;99402.56;4365639;32;20432;-55
2021/04/27 05:10:51;;;;;;;;;;;;;;;20.83;23.51;99406.09;4365019;32;19992;-55
2021/04/27 05:13:17;;;;;;;;;;;;;;;20.84;23.50;99415.78;4364155;32;19967;-56
2021/04/27 05:15:43;;;;;;;;;;;;;;;20.83;23.52;99410.50;4367427;32;19960;-54
2021/04/27 05:18:09;;;;;;;;;;;;;;;20.84;23.53;99406.97;4365370;32;20523;-54
2021/04/27 05:20:35;;;;;;;;;;;;;;;20.71;23.69;99420.22;4364114;32;19975;-55
2021/04/27 05:23:00;;;;;;;;;;;;;;;20.77;23.65;99420.19;4366183;32;19959;-55
2021/04/27 05:25:26;;;;;;;;;;;;;;;20.74;23.67;99409.62;4365473;32;20354;-56
2021/04/27 05:27:52;;;;;;;;;;;;;;;20.72;23.69;99411.41;4368144;32;20010;-54
2021/04/27 05:30:18;;;;;;;;;;;;;;;20.72;23.71;99408.75;4367933;32;19967;-56
2021/04/27 05:32:44;;;;;;;;;;;;;;;20.76;23.64;99409.62;4366267;32;20417;-54
2021/04/27 05:35:10;;;;;;;;;;;;;;;20.82;23.59;99401.69;4366218;32;19943;-54
2021/04/27 05:37:36;;;;;;;;;;;;;;;20.87;23.54;99409.59;4367588;32;19982;-53
2021/04/27 05:40:02;;;;;;;;;;;;;;;20.76;23.68;99399.03;4362935;32;19951;-55
2021/04/27 05:42:28;;;;;;;;;;;;;;;20.75;23.71;99407.88;4365396;32;19983;-55
2021/04/27 05:44:54;;;;;;;;;;;;;;;20.83;23.63;99406.09;4366576;32;19935;-56
2021/04/27 05:47:19;;;;;;;;;;;;;;;20.72;23.71;99398.19;4364085;32;19991;-56
2021/04/27 05:49:45;;;;;;;;;;;;;;;20.77;23.67;99396.38;4366032;32;20519;-56
2021/04/27 05:52:11;;;;;;;;;;;;;;;20.81;23.63;99396.38;4366333;32;19963;-56
2021/04/27 05:54:37;;;;;;;;;;;;;;;20.85;23.59;99395.50;4364174;32;20278;-56
2021/04/27 05:57:03;;;;;;;;;;;;;;;20.83;23.61;99400.78;4366357;32;19967;-55
2021/04/27 05:59:29;;;;;;;;;;;;;;;20.85;23.58;99398.16;4365049;32;19962;-56
2021/04/27 06:01:55;;;;;;;;;;;;;;;20.78;23.71;99400.78;4367660;32;19947;-53
2021/04/27 06:04:21;;;;;;;;;;;;;;;20.72;23.78;99394.62;4363937;32;19991;-54
2021/04/27 06:06:47;;;;;;;;;;;;;;;20.81;23.67;99399.03;4367515;32;19954;-56
2021/04/27 06:09:15;;;;;;;;;;;;;;;20.77;23.72;99392.88;4356502;32;20371;-55
2021/04/27 06:11:41;;;;;;;;;;;;;;;20.79;23.70;99391.09;4354478;32;19959;-56
2021/04/27 06:14:07;;;;;;;;;;;;;;;20.78;23.70;99390.19;4356513;32;19974;-55
2021/04/27 06:16:33;;;;;;;;;;;;;;;20.77;23.76;99399.03;4366596;32;20055;-54
2021/04/27 06:18:59;;;;;;;;;;;;;;;20.79;23.69;99391.09;4364036;32;19998;-55
2021/04/27 06:21:25;;;;;;;;;;;;;;;20.77;23.77;99390.22;4359672;32;19999;-55
2021/04/27 06:23:51;;;;;;;;;;;;;;;20.84;23.66;99394.59;4365014;32;19989;-55
2021/04/27 06:26:17;;;;;;;;;;;;;;;20.74;23.79;99393.75;4360404;32;19965;-56
2021/04/27 06:28:43;;;;;;;;;;;;;;;20.86;23.68;99389.31;4355368;32;19985;-56
2021/04/27 06:31:09;;;;;;;;;;;;;;;20.81;23.69;99391.09;4361331;32;19947;-53
2021/04/27 06:33:35;;;;;;;;;;;;;;;20.84;23.70;99385.81;4358183;32;20354;-56
2021/04/27 06:36:01;;;;;;;;;;;;;;;20.88;23.65;99385.78;4360641;32;19993;-54
2021/04/27 06:38:27;;;;;;;;;;;;;;;20.84;23.71;99388.47;4370056;32;20304;-55
2021/04/27 06:40:52;;;;;;;;;;;;;;;20.87;23.66;99388.44;4366659;32;19955;-56
2021/04/27 06:43:18;;;;;;;;;;;;;;;20.85;23.71;99392.84;4354860;32;19951;-55
2021/04/27 06:45:44;;;;;;;;;;;;;;;20.91;23.62;99387.50;4356456;32;19947;-55
2021/04/27 06:48:10;;;;;;;;;;;;;;;20.86;23.70;99386.69;4369838;32;19966;-55
2021/04/27 06:50:37;;;;;;;;;;;;;;;20.83;23.74;99392.00;4369235;32;19988;-55
2021/04/27 06:53:02;;;;;;;;;;;;;;;20.84;23.72;99393.75;4356524;32;20098;-56
2021/04/27 06:55:28;;;;;;;;;;;;;;;20.83;23.75;99390.22;4355266;32;19967;-54
2021/04/27 06:57:54;;;;;;;;;;;;;;;20.79;23.83;99396.38;4369502;32;19958;-56
2021/04/27 07:00:20;;;;;;;;;;;;;;;20.80;23.81;99390.19;4369757;32;19951;-54
2021/04/27 07:02:46;;;;;;;;;;;;;;;20.69;23.96;99390.25;4362046;32;20343;-55
2021/04/27 07:05:12;;;;;;;;;;;;;;;20.73;23.91;99389.34;4370135;32;19951;-55
2021/04/27 07:07:38;;;;;;;;;;;;;;;20.66;24.02;99384.97;4358821;32;19959;-53
2021/04/27 07:10:04;;;;;;;;;;;;;;;20.64;24.05;99389.38;4354617;32;19969;-56
2021/04/27 07:12:30;;;;;;;;;;;;;;;20.73;23.93;99381.41;4365431;32;19977;-54
2021/04/27 07:14:56;;;;;;;;;;;;;;;20.82;23.83;99384.94;4370604;32;19955;-55
2021/04/27 07:17:22;;;;;;;;;;;;;;;20.83;23.82;99381.41;4361065;32;19978;-52
2021/04/27 07:19:49;;;;;;;;;;;;;;;20.84;23.82;99383.16;4358196;32;20291;-55
2021/04/27 07:22:15;;;;;;;;;;;;;;;20.87;23.78;99388.44;4361839;32;20005;-56
2021/04/27 07:24:41;;;;;;;;;;;;;;;20.87;23.79;99380.50;4366992;32;19977;-55
2021/04/27 07:27:06;;;;;;;;;;;;;;;20.90;23.77;99377.81;4362921;32;20368;-54
2021/04/27 07:29:32;;;;;;;;;;;;;;;20.83;23.84;99365.53;4361437;32;19959;-60
2021/04/27 07:31:58;;;;;;;;;;;;;;;20.82;23.94;99369.94;4357563;32;20303;-59
2021/04/27 07:34:24;;;;;;;;;;;;;;;20.04;22.67;99369.31;4369590;32;20008;-56
2021/04/27 07:36:50;;;;;;;;;;;;;;;19.54;21.83;99371.13;4369389;32;19986;-56
2021/04/27 07:39:16;;;;;;;;;;;;;;;19.31;21.95;99357.00;4362384;32;19966;-58
2021/04/27 07:41:42;;;;;;;;;;;;;;;19.05;21.77;99371.06;4358511;32;20003;-55
2021/04/27 07:44:08;;;;;;;;;;;;;;;18.98;22.18;99366.63;4366397;32;19997;-57
2021/04/27 07:46:34;;;;;;;;;;;;;;;18.98;22.51;99366.63;4367010;32;19955;-55
2021/04/27 07:49:00;;;;;;;;;;;;;;;18.85;22.09;99372.75;4360268;32;20034;-58
2021/04/27 07:51:26;;;;;;;;;;;;;;;18.71;22.77;99360.41;4368772;32;20354;-57
2021/04/27 07:53:52;;;;;;;;;;;;;;;18.79;22.04;99363.06;4362607;32;19993;-57
2021/04/27 07:56:17;;;;;;;;;;;;;;;18.67;22.39;99363.88;4364719;32;19939;-58
2021/04/27 07:58:43;;;;;;;;;;;;;;;18.64;22.18;99358.63;4360262;32;19972;-57
2021/04/27 08:01:09;;;;;;;;;;;;;;;18.53;22.46;99361.22;4360720;32;20005;-58
2021/04/27 08:03:35;;;;;;;;;;;;;;;18.56;22.45;99363.88;4362600;32;20349;-58
2021/04/27 08:06:01;;;;;;;;;;;;;;;18.52;22.56;99367.34;4367849;32;19974;-57
2021/04/27 08:08:27;;;;;;;;;;;;;;;18.23;22.77;99358.47;4368682;32;19982;-58
2021/04/27 08:10:53;;;;;;;;;;;;;;;18.47;22.34;99356.81;4366246;32;19981;-57
2021/04/27 08:13:19;;;;;;;;;;;;;;;18.30;22.13;99358.47;4367949;32;20000;-56
2021/04/27 08:15:45;;;;;;;;;;;;;;;18.44;22.45;99364.69;4372917;32;20388;-57
2021/04/27 08:18:11;;;;;;;;;;;;;;;18.50;22.53;99358.56;4368741;32;20037;-58
2021/04/27 08:20:37;;;;;;;;;;;;;;;18.56;22.26;99357.69;4363569;32;19951;-58
2021/04/27 08:23:03;;;;;;;;;;;;;;;18.12;22.56;99349.62;4367830;32;19979;-57
2021/04/27 08:25:30;;;;;;;;;;;;;;;18.25;22.44;99351.44;4366500;32;20381;-58
2021/04/27 08:27:56;;;;;;;;;;;;;;;18.42;22.21;99358.53;4365965;32;19971;-56
2021/04/27 08:30:22;;;;;;;;;;;;;;;18.61;22.27;99358.63;4357198;32;20592;-57
2021/04/27 08:32:48;;;;;;;;;;;;;;;18.33;22.45;99356.75;4366164;32;19956;-58
2021/04/27 08:35:14;;;;;;;;;;;;;;;18.39;22.67;99353.25;4368955;32;20312;-58
2021/04/27 08:37:40;;;;;;;;;;;;;;;18.59;21.83;99355.09;4360656;32;20284;-57
2021/04/27 08:40:06;;;;;;;;;;;;;;;18.23;22.31;99352.28;4372711;32;19951;-56
2021/04/27 08:42:34;;;;;;;;;;;;;;;18.27;22.12;99346.16;4368364;32;19974;-57
2021/04/27 08:44:59;;;;;;;;;;;;;;;18.11;22.78;99343.44;4367665;32;20366;-57
2021/04/27 08:47:25;;;;;;;;;;;;;;;18.23;22.45;99342.66;4364562;32;19994;-53
2021/04/27 08:49:52;;;;;;;;;;;;;;;18.13;22.28;99340.84;4369451;32;19973;-56
2021/04/27 08:52:17;;;;;;;;;;;;;;;17.69;23.13;99334.41;4365237;32;20018;-55
2021/04/27 08:54:43;;;;;;;;;;;;;;;17.86;23.04;99336.25;4360767;32;19955;-56
2021/04/27 08:57:09;;;;;;;;;;;;;;;17.96;22.82;99332.81;4371317;32;19987;-58
2021/04/27 08:59:35;;;;;;;;;;;;;;;18.12;22.68;99339.06;4362750;32;19951;-58
2021/04/27 09:02:01;;;;;;;;;;;;;;;17.96;23.04;99336.34;4366167;32;19954;-56
2021/04/27 09:04:27;;;;;;;;;;;;;;;18.19;22.77;99330.31;4362622;32;19982;-55
2021/04/27 09:06:53;;;;;;;;;;;;;;;18.20;22.80;99331.19;4364063;32;19990;-57
2021/04/27 09:09:19;;;;;;;;;;;;;;;18.27;22.80;99327.69;4361231;32;19951;-55
2021/04/27 09:11:47;;;;;;;;;;;;;;;18.17;22.93;99321.53;4360601;32;19967;-56
2021/04/27 09:14:14;;;;;;;;;;;;;;;17.98;23.09;99317.88;4369555;32;19955;-57
2021/04/27 09:16:40;;;;;;;;;;;;;;;18.22;23.03;99319.81;4372234;32;19955;-57
2021/04/27 09:19:06;;;;;;;;;;;;;;;18.23;23.55;99318.94;4364325;32;20367;-57
2021/04/27 09:21:32;;;;;;;;;;;;;;;17.98;23.80;99309.97;4362787;32;19963;-56
2021/04/27 09:23:58;;;;;;;;;;;;;;;18.18;23.62;99312.75;4366617;32;19952;-55
2021/04/27 09:26:24;;;;;;;;;;;;;;;18.61;23.28;99313.78;4355066;32;19977;-56
2021/04/27 09:28:50;;;;;;;;;;;;;;;18.78;23.21;99309.41;4360537;32;19998;-55
2021/04/27 09:31:16;;;;;;;;;;;;;;;19.04;22.93;99308.59;4372431;32;19977;-56
2021/04/27 09:33:42;;;;;;;;;;;;;;;19.10;22.92;99303.34;4363624;32;19975;-56
2021/04/27 09:36:08;;;;;;;;;;;;;;;19.13;23.01;99304.22;4371248;32;19963;-55
2021/04/27 09:38:34;;;;;;;;;;;;;;;19.19;23.01;99293.66;4369769;32;20305;-56
2021/04/27 09:41:00;;;;;;;;;;;;;;;19.24;23.04;99292.78;4357332;32;20017;-53
2021/04/27 09:43:26;;;;;;;;;;;;;;;19.28;23.06;99296.31;4357092;32;19959;-54
2021/04/27 09:45:52;;;;;;;;;;;;;;;19.31;23.09;99283.09;4372719;32;19951;-55
2021/04/27 09:48:18;;;;;;;;;;;;;;;19.39;23.07;99291.03;4372061;32;19947;-56
2021/04/27 09:50:44;;;;;;;;;;;;;;;19.43;23.10;99281.31;4356844;32;19955;-55
2021/04/27 09:53:10;;;;;;;;;;;;;;;19.44;23.14;99272.53;4357478;32;19988;-56
2021/04/27 09:55:36;;;;;;;;;;;;;;;19.48;23.12;99277.81;4370509;32;19958;-55
2021/04/27 09:58:01;;;;;;;;;;;;;;;19.54;23.12;99271.63;4371004;32;19962;-55
2021/04/27 10:00:28;;;;;;;;;;;;;;;19.58;23.16;99276.03;4360613;32;20341;-55
2021/04/27 10:02:54;;;;;;;;;;;;;;;19.55;23.25;99268.09;4358585;32;19944;-54
2021/04/27 10:05:20;;;;;;;;;;;;;;;19.54;23.33;99263.72;4363417;32;19965;-55
2021/04/27 10:07:46;;;;;;;;;;;;;;;19.54;23.40;99266.34;4360326;32;19994;-56
2021/04/27 10:10:11;;;;;;;;;;;;;;;19.62;23.36;99255.75;4364211;32;19943;-54
2021/04/27 10:12:37;;;;;;;;;;;;;;;19.66;23.32;99253.13;4358285;32;19943;-56
2021/04/27 10:15:03;;;;;;;;;;;;;;;19.67;23.38;99254.00;4362433;32;19959;-55
2021/04/27 10:17:29;;;;;;;;;;;;;;;19.65;23.46;99248.72;4365057;32;19963;-54
2021/04/27 10:19:55;;;;;;;;;;;;;;;19.64;23.50;99249.59;4364422;32;20276;-53
2021/04/27 10:22:21;;;;;;;;;;;;;;;19.64;23.58;99246.97;4365105;32;19947;-56
2021/04/27 10:24:47;;;;;;;;;;;;;;;19.73;23.52;99238.13;4365222;32;19970;-56
2021/04/27 10:27:13;;;;;;;;;;;;;;;19.62;23.66;99240.81;4364125;32;19981;-56
2021/04/27 10:29:39;;;;;;;;;;;;;;;19.60;23.73;99242.59;4364872;32;19947;-56
2021/04/27 10:32:04;;;;;;;;;;;;;;;19.58;23.82;99239.06;4365642;32;20011;-55
2021/04/27 10:34:31;;;;;;;;;;;;;;;19.65;23.79;99230.22;4369613;32;19987;-55
2021/04/27 10:36:57;;;;;;;;;;;;;;;19.75;23.70;99238.13;4365249;32;19944;-56
2021/04/27 10:39:23;;;;;;;;;;;;;;;19.80;23.65;99220.50;4365730;32;19970;-56
2021/04/27 10:41:52;;;;;;;;;;;;;;;19.94;23.53;99229.31;4365047;32;19980;-56
2021/04/27 10:44:18;;;;;;;;;;;;;;;19.93;23.57;99224.88;4364413;32;19964;-56
2021/04/27 10:46:44;;;;;;;;;;;;;;;19.90;23.65;99219.59;4365835;32;20551;-56
2021/04/27 10:49:10;;;;;;;;;;;;;;;19.93;23.63;99216.94;4360015;32;19991;-57
2021/04/27 10:51:36;;;;;;;;;;;;;;;19.87;23.78;99218.72;4370505;32;19996;-54
2021/04/27 10:54:01;;;;;;;;;;;;;;;19.88;23.80;99205.50;4372929;32;19939;-54
2021/04/27 10:56:28;;;;;;;;;;;;;;;19.83;23.91;99207.31;4363548;32;21719;-55
2021/04/27 10:58:55;;;;;;;;;;;;;;;19.89;23.87;99204.62;4357333;32;19963;-56
2021/04/27 11:01:21;;;;;;;;;;;;;;;19.82;23.98;99210.81;4365394;32;19987;-54
2021/04/27 11:03:46;;;;;;;;;;;;;;;19.91;23.92;99194.91;4363761;32;19944;-54
2021/04/27 11:06:12;;;;;;;;;;;;;;;20.01;23.83;99194.91;4365108;32;19992;-54
2021/04/27 11:08:38;;;;;;;;;;;;;;;20.09;23.77;99198.41;4364949;32;19954;-56
2021/04/27 11:11:04;;;;;;;;;;;;;;;20.08;23.81;99186.09;4362630;32;19947;-55
2021/04/27 11:13:30;;;;;;;;;;;;;;;20.07;23.84;99181.69;4363012;32;19978;-55
2021/04/27 11:15:56;;;;;;;;;;;;;;;20.13;23.80;99181.62;4369214;32;20441;-55
2021/04/27 11:18:22;;;;;;;;;;;;;;;20.15;23.84;99187.78;4362962;32;19998;-55
2021/04/27 11:20:48;;;;;;;;;;;;;;;20.21;23.79;99182.47;4365394;32;20288;-56
2021/04/27 11:23:14;;;;;;;;;;;;;;;20.30;23.74;99185.94;4369659;32;19963;-56
2021/04/27 11:25:40;;;;;;;;;;;;;;;20.32;23.71;99176.25;4369866;32;20040;-50
2021/04/27 11:28:06;;;;;;;;;;;;;;;20.35;23.73;99178.87;4369254;32;19959;-56
2021/04/27 11:30:32;;;;;;;;;;;;;;;20.39;23.69;99175.31;4367512;32;20292;-55
2021/04/27 11:32:59;;;;;;;;;;;;;;;20.40;23.70;99166.47;4355019;32;19978;-55
2021/04/27 11:35:25;;;;;;;;;;;;;;;20.42;23.72;99163.84;4355215;32;19967;-55
2021/04/27 11:37:51;;;;;;;;;;;;;;;20.48;23.68;99153.19;4369880;32;19989;-55
2021/04/27 11:40:17;;;;;;;;;;;;;;;20.53;23.68;99155.81;4369704;32;20342;-55
2021/04/27 11:42:43;;;;;;;;;;;;;;;20.54;23.70;99152.28;4354860;32;19990;-53
2021/04/27 11:45:09;;;;;;;;;;;;;;;20.55;23.69;99154.91;4366023;32;19969;-54
2021/04/27 11:47:34;;;;;;;;;;;;;;;20.59;23.69;99155.78;4357018;32;19970;-55
2021/04/27 11:50:00;;;;;;;;;;;;;;;20.58;23.74;99148.75;4353034;32;20380;-55
2021/04/27 11:52:27;;;;;;;;;;;;;;;20.60;23.76;99141.66;4355260;32;19994;-55
2021/04/27 11:54:52;;;;;;;;;;;;;;;20.69;23.68;99140.69;4355614;32;19951;-55
2021/04/27 11:57:18;;;;;;;;;;;;;;;20.76;23.62;99137.13;4364994;32;19974;-54
2021/04/27 11:59:44;;;;;;;;;;;;;;;20.74;23.67;99139.78;4369435;32;19947;-55
2021/04/27 12:02:10;;;;;;;;;;;;;;;20.80;23.63;99136.19;4360825;32;19981;-54
2021/04/27 12:04:36;;;;;;;;;;;;;;;20.94;23.50;99136.12;4354697;32;19966;-55
2021/04/27 12:07:02;;;;;;;;;;;;;;;21.00;23.47;99141.31;4362183;32;20063;-52
2021/04/27 12:09:28;;;;;;;;;;;;;;;21.02;23.47;99138.69;4369450;32;19983;-56
2021/04/27 12:11:54;;;;;;;;;;;;;;;21.05;23.43;99136.88;4362232;32;20250;-51
2021/04/27 12:14:20;;;;;;;;;;;;;;;21.05;23.49;99128.06;4355076;32;20412;-54
2021/04/27 12:16:46;;;;;;;;;;;;;;;20.98;23.60;99126.34;4360544;32;20007;-55
2021/04/27 12:19:11;;;;;;;;;;;;;;;20.95;23.67;99121.97;4354100;32;19970;-52
2021/04/27 12:21:38;;;;;;;;;;;;;;;20.96;23.66;99115.78;4358537;32;19951;-54
2021/04/27 12:24:04;;;;;;;;;;;;;;;20.98;23.67;99115.75;4369906;32;19985;-54
2021/04/27 12:26:30;;;;;;;;;;;;;;;21.01;23.66;99106.03;4365906;32;20063;-53
2021/04/27 12:28:56;;;;;;;;;;;;;;;21.04;23.66;99106.00;4354875;32;19963;-52
2021/04/27 12:31:22;;;;;;;;;;;;;;;21.11;23.59;99108.59;4355918;32;25656;-51
2021/04/27 12:33:48;;;;;;;;;;;;;;;21.11;23.65;99105.94;4370390;32;19974;-54
2021/04/27 12:36:14;;;;;;;;;;;;;;;21.13;23.63;99098.84;4369598;32;19985;-54
2021/04/27 12:38:39;;;;;;;;;;;;;;;21.16;23.64;99097.06;4354092;32;20340;-52
2021/04/27 12:41:05;;;;;;;;;;;;;;;21.17;23.63;99090.84;4354055;32;19955;-55